Time;durP1;ratioP1;P1;durP2;ratioP2;P2;SDS_P1;SDS_P2;PMS_P1;PMS_P2;Temp;Humidity;BMP_temperature;BMP_pressure;BME280_temperature;BME280_humidity;BME280_pressure;Samples;Min_cycle;Max_cycle;Signal;HPM_P1;HPM_P2
2022/07/26 19:05:29;;;;;;;;;;;;;;;23.36;58.58;99314.59;4489250;22;20012;-76
2022/07/26 19:08:02;;;;;;;;;;;;;;;23.30;58.67;99325.31;4997581;28;19936;-74
2022/07/26 19:10:31;;;;;;;;;;;;;;;23.21;58.53;99318.03;4996530;28;19980;-75
2022/07/26 19:12:59;;;;;;;;;;;;;;;23.18;58.53;99331.22;4997081;28;19965;-74
2022/07/26 19:15:29;;;;;;;;;;;;;;;23.09;58.55;99322.19;4997462;28;19926;-72
2022/07/26 19:17:57;;;;;;;;;;;;;;;23.07;58.42;99328.41;4996853;28;19980;-73
2022/07/26 19:20:26;;;;;;;;;;;;;;;23.01;58.21;99334.00;4996217;28;19974;-74
2022/07/26 19:22:57;;;;;;;;;;;;;;;22.96;58.19;99330.81;4979714;28;20450;-75
2022/07/26 19:25:26;;;;;;;;;;;;;;;22.92;58.21;99329.28;4979485;28;20379;-74
2022/07/26 19:27:54;;;;;;;;;;;;;;;22.89;58.47;99329.47;4996764;28;19926;-73
2022/07/26 19:30:24;;;;;;;;;;;;;;;22.85;58.22;99338.38;4996583;28;19937;-73
2022/07/26 19:32:53;;;;;;;;;;;;;;;22.78;58.20;99334.44;4996719;28;19929;-73
2022/07/26 19:35:22;;;;;;;;;;;;;;;22.73;58.10;99329.47;4996386;28;19926;-74
2022/07/26 19:37:50;;;;;;;;;;;;;;;22.64;57.96;99341.25;4996239;28;19932;-74
2022/07/26 19:40:20;;;;;;;;;;;;;;;22.56;58.09;99322.59;4996669;28;19926;-74
2022/07/26 19:42:49;;;;;;;;;;;;;;;22.49;58.09;99331.66;4996923;28;19980;-74
2022/07/26 19:45:17;;;;;;;;;;;;;;;22.42;57.82;99332.91;4996442;28;20299;-74
2022/07/26 19:47:46;;;;;;;;;;;;;;;22.35;57.86;99335.91;4996862;28;19996;-74
2022/07/26 19:50:15;;;;;;;;;;;;;;;22.31;57.77;99339.63;4996367;28;19933;-73
2022/07/26 19:52:44;;;;;;;;;;;;;;;22.26;57.46;99334.66;4996796;28;19949;-74
2022/07/26 19:55:12;;;;;;;;;;;;;;;22.22;57.35;99348.72;4988571;28;19930;-74
2022/07/26 19:57:42;;;;;;;;;;;;;;;22.19;57.30;99343.72;4996151;28;20020;-74
2022/07/26 20:00:12;;;;;;;;;;;;;;;22.13;57.67;99349.22;4996121;28;19926;-74
2022/07/26 20:02:40;;;;;;;;;;;;;;;22.02;57.42;99352.41;4996260;28;19925;-74
2022/07/26 20:05:09;;;;;;;;;;;;;;;21.96;57.03;99352.72;4995904;28;19925;-74
2022/07/26 20:07:38;;;;;;;;;;;;;;;21.90;57.51;99357.41;4996225;28;19926;-74
2022/07/26 20:10:08;;;;;;;;;;;;;;;21.83;57.63;99356.00;4996368;28;19925;-74
2022/07/26 20:12:37;;;;;;;;;;;;;;;21.81;57.49;99363.06;4995983;28;19969;-74
2022/07/26 20:15:08;;;;;;;;;;;;;;;21.74;58.02;99367.69;4995896;28;19930;-74
2022/07/26 20:17:38;;;;;;;;;;;;;;;21.69;58.04;99371.47;4996181;28;20364;-74
2022/07/26 20:20:07;;;;;;;;;;;;;;;21.63;58.05;99371.78;4995808;28;19929;-74
2022/07/26 20:22:37;;;;;;;;;;;;;;;21.55;57.86;99371.31;4996015;28;20287;-74
2022/07/26 20:25:07;;;;;;;;;;;;;;;21.50;57.39;99378.50;4996443;28;20377;-74
2022/07/26 20:27:36;;;;;;;;;;;;;;;21.51;57.28;99370.63;4995616;28;19933;-74
2022/07/26 20:30:05;;;;;;;;;;;;;;;21.52;57.13;99376.69;4995894;28;20439;-74
2022/07/26 20:32:35;;;;;;;;;;;;;;;21.49;57.41;99379.41;4995542;28;19990;-75
2022/07/26 20:35:04;;;;;;;;;;;;;;;21.40;57.79;99382.47;4996098;28;19985;-75
2022/07/26 20:37:32;;;;;;;;;;;;;;;21.35;58.00;99388.72;4978581;28;19926;-75
2022/07/26 20:40:01;;;;;;;;;;;;;;;21.12;58.77;99389.00;4995617;28;20360;-75
2022/07/26 20:42:30;;;;;;;;;;;;;;;20.91;59.78;99394.34;4995452;28;19976;-74
2022/07/26 20:44:59;;;;;;;;;;;;;;;20.81;59.94;99388.75;4995507;28;19926;-75
2022/07/26 20:47:28;;;;;;;;;;;;;;;20.65;60.99;99390.38;4995432;28;20379;-75
2022/07/26 20:49:58;;;;;;;;;;;;;;;20.49;60.97;99398.00;4994116;28;20016;-75
2022/07/26 20:52:30;;;;;;;;;;;;;;;20.46;61.04;99392.13;4995397;28;19926;-75
2022/07/26 20:54:59;;;;;;;;;;;;;;;20.36;61.44;99390.88;4995251;28;20426;-75
2022/07/26 20:57:28;;;;;;;;;;;;;;;20.28;61.84;99380.00;4995495;28;19936;-75
2022/07/26 20:59:56;;;;;;;;;;;;;;;20.18;62.05;99376.94;4995142;28;20378;-75
2022/07/26 21:02:25;;;;;;;;;;;;;;;20.18;62.39;99378.72;4995030;28;19926;-75
2022/07/26 21:04:53;;;;;;;;;;;;;;;20.13;62.38;99373.72;4994876;28;19929;-75
2022/07/26 21:07:25;;;;;;;;;;;;;;;20.10;62.50;99380.78;4995330;28;19926;-75
2022/07/26 21:10:14;;;;;;;;;;;;;;;20.02;62.86;99381.97;4977683;28;19936;-75
2022/07/26 21:12:42;;;;;;;;;;;;;;;20.01;63.01;99393.22;4977771;28;19977;-75
2022/07/26 21:15:11;;;;;;;;;;;;;;;20.01;63.33;99390.63;4994967;28;20447;-75
2022/07/26 21:17:39;;;;;;;;;;;;;;;19.99;62.79;99397.63;4977642;28;19933;-75
2022/07/26 21:20:08;;;;;;;;;;;;;;;19.84;62.26;99394.88;4995180;28;19987;-75
2022/07/26 21:22:38;;;;;;;;;;;;;;;19.83;62.52;99403.56;4994987;28;19953;-75
2022/07/26 21:25:07;;;;;;;;;;;;;;;19.86;62.30;99401.69;4994892;28;19926;-76
2022/07/26 21:27:36;;;;;;;;;;;;;;;19.92;62.55;99396.22;4994808;28;19964;-76
2022/07/26 21:30:05;;;;;;;;;;;;;;;19.92;62.48;99397.97;4994828;28;19926;-76
2022/07/26 21:32:34;;;;;;;;;;;;;;;19.73;62.89;99400.50;4977620;28;19980;-74
2022/07/26 21:35:02;;;;;;;;;;;;;;;19.69;63.25;99398.97;4994889;28;19957;-74
2022/07/26 21:37:31;;;;;;;;;;;;;;;19.58;63.54;99402.91;4994944;28;19926;-74
2022/07/26 21:40:01;;;;;;;;;;;;;;;19.41;64.29;99405.34;4994710;28;20020;-74
2022/07/26 21:42:30;;;;;;;;;;;;;;;19.29;64.91;99396.31;4994775;28;20008;-74
2022/07/26 21:44:58;;;;;;;;;;;;;;;19.21;65.39;99404.38;4994777;28;19988;-74
2022/07/26 21:47:26;;;;;;;;;;;;;;;19.10;65.97;99408.31;4994629;28;20095;-74
2022/07/26 21:49:55;;;;;;;;;;;;;;;19.10;66.35;99408.31;4994509;28;19925;-74
2022/07/26 21:52:23;;;;;;;;;;;;;;;19.03;66.55;99412.00;4994803;28;19926;-75
2022/07/26 21:54:52;;;;;;;;;;;;;;;19.07;66.58;99416.19;4994600;28;20252;-74
2022/07/26 21:57:22;;;;;;;;;;;;;;;19.07;66.68;99416.19;4994416;28;19968;-74
2022/07/26 21:59:50;;;;;;;;;;;;;;;19.09;66.84;99411.78;4994925;28;19995;-74
2022/07/26 22:02:19;;;;;;;;;;;;;;;19.06;67.02;99411.91;4998463;28;19955;-74
2022/07/26 22:04:49;;;;;;;;;;;;;;;19.01;67.54;99411.22;4998431;28;19926;-75
2022/07/26 22:07:17;;;;;;;;;;;;;;;19.01;67.23;99413.81;4998520;28;19930;-74
2022/07/26 22:09:45;;;;;;;;;;;;;;;18.99;67.21;99410.44;4998690;28;19926;-74
2022/07/26 22:12:14;;;;;;;;;;;;;;;18.97;67.30;99417.44;4998273;28;19925;-74
2022/07/26 22:14:44;;;;;;;;;;;;;;;18.91;67.16;99418.50;4998715;28;19933;-74
2022/07/26 22:17:13;;;;;;;;;;;;;;;18.79;67.46;99416.38;4990534;28;19926;-75
2022/07/26 22:19:41;;;;;;;;;;;;;;;18.72;67.94;99420.97;4980915;28;19925;-75
2022/07/26 22:22:10;;;;;;;;;;;;;;;18.71;67.72;99432.19;4998059;28;19933;-76
2022/07/26 22:24:38;;;;;;;;;;;;;;;18.73;67.92;99424.41;4964865;28;20419;-75
2022/07/26 22:27:07;;;;;;;;;;;;;;;18.67;67.71;99432.38;4997968;28;19932;-75
2022/07/26 22:29:36;;;;;;;;;;;;;;;18.57;67.84;99434.44;4981212;28;20303;-75
2022/07/26 22:32:09;;;;;;;;;;;;;;;18.57;68.05;99431.88;4997992;28;19980;-75
2022/07/26 22:34:38;;;;;;;;;;;;;;;18.53;68.42;99427.72;4997851;28;19932;-75
2022/07/26 22:37:06;;;;;;;;;;;;;;;18.49;68.50;99426.16;4997791;28;19930;-75
2022/07/26 22:39:35;;;;;;;;;;;;;;;18.51;68.38;99436.44;4997867;28;19933;-75
2022/07/26 22:42:04;;;;;;;;;;;;;;;18.46;68.31;99440.91;4997699;28;19988;-76
2022/07/26 22:44:43;;;;;;;;;;;;;;;18.37;68.52;99447.25;4997900;28;20016;-74
2022/07/26 22:47:13;;;;;;;;;;;;;;;18.27;68.93;99440.72;4989655;28;19926;-74
2022/07/26 22:49:42;;;;;;;;;;;;;;;18.27;69.06;99450.19;4997712;28;19976;-75
2022/07/26 22:52:10;;;;;;;;;;;;;;;18.30;68.87;99448.38;4997566;28;19982;-75
2022/07/26 22:54:39;;;;;;;;;;;;;;;18.29;69.16;99448.41;4980480;28;19927;-75
2022/07/26 22:57:07;;;;;;;;;;;;;;;18.33;69.18;99444.84;4980464;28;19925;-74
2022/07/26 22:59:37;;;;;;;;;;;;;;;18.43;68.59;99441.84;4997414;28;19973;-75
2022/07/26 23:02:05;;;;;;;;;;;;;;;18.42;68.48;99440.19;4997332;28;19933;-76
2022/07/26 23:04:36;;;;;;;;;;;;;;;18.40;68.61;99452.31;4997337;28;20008;-76
2022/07/26 23:07:06;;;;;;;;;;;;;;;18.43;68.55;99444.44;4980075;28;19930;-76
2022/07/26 23:09:36;;;;;;;;;;;;;;;18.28;68.96;99447.59;4997147;28;19932;-75
2022/07/26 23:12:04;;;;;;;;;;;;;;;18.28;68.79;99441.56;4996013;28;19977;-75
2022/07/26 23:14:33;;;;;;;;;;;;;;;18.30;68.90;99444.94;4997181;28;19932;-75
2022/07/26 23:17:02;;;;;;;;;;;;;;;18.31;68.86;99447.44;4997425;28;19926;-75
2022/07/26 23:19:31;;;;;;;;;;;;;;;18.38;68.70;99448.09;4997031;28;19933;-75
2022/07/26 23:22:01;;;;;;;;;;;;;;;18.30;68.94;99450.94;4996956;28;20022;-75
2022/07/26 23:24:30;;;;;;;;;;;;;;;18.25;69.09;99452.84;4997330;28;19972;-75
2022/07/26 23:26:58;;;;;;;;;;;;;;;18.17;69.35;99447.09;4996829;28;19925;-74
2022/07/26 23:29:27;;;;;;;;;;;;;;;18.17;69.64;99444.53;4997152;28;19969;-74
2022/07/26 23:31:55;;;;;;;;;;;;;;;18.13;69.65;99442.94;4996803;28;19934;-74
2022/07/26 23:34:24;;;;;;;;;;;;;;;18.12;69.69;99446.41;4996700;28;19926;-74
2022/07/26 23:36:52;;;;;;;;;;;;;;;18.22;69.75;99442.63;4997012;28;19926;-74
2022/07/26 23:39:22;;;;;;;;;;;;;;;18.33;69.46;99440.47;4996644;28;19926;-74
2022/07/26 23:41:51;;;;;;;;;;;;;;;18.28;69.34;99442.41;4979324;28;20355;-74
2022/07/26 23:44:19;;;;;;;;;;;;;;;18.15;69.48;99441.16;4979122;28;19988;-74
2022/07/26 23:46:48;;;;;;;;;;;;;;;18.11;69.98;99443.91;4996768;28;19980;-74
2022/07/26 23:49:16;;;;;;;;;;;;;;;18.16;69.96;99449.75;4996505;28;19926;-74
2022/07/26 23:51:45;;;;;;;;;;;;;;;18.20;69.74;99444.41;4996681;28;20315;-74
2022/07/26 23:54:13;;;;;;;;;;;;;;;18.23;69.57;99439.16;4996758;28;19988;-74
2022/07/26 23:56:44;;;;;;;;;;;;;;;18.30;69.49;99442.34;4996104;28;19932;-74
2022/07/26 23:59:13;;;;;;;;;;;;;;;18.31;69.00;99447.44;4996363;28;19926;-74
